sensor_id;sensor_type;location;lat;lon;timestamp;temperature;humidity
3644;DHT22;1838;50.742;7.158;2022-09-09T00:01:51;18.10;99.90
3644;DHT22;1838;50.742;7.158;2022-09-09T00:04:35;18.10;99.90
3644;DHT22;1838;50.742;7.158;2022-09-09T00:07:15;18.00;99.90
3644;DHT22;1838;50.742;7.158;2022-09-09T00:09:59;18.00;99.90
3644;DHT22;1838;50.742;7.158;2022-09-09T00:12:48;17.90;99.90
3644;DHT22;1838;50.742;7.158;2022-09-09T00:15:20;17.80;99.90
3644;DHT22;1838;50.742;7.158;2022-09-09T00:18:15;17.80;99.90
3644;DHT22;1838;50.742;7.158;2022-09-09T00:21:29;17.80;99.90
3644;DHT22;1838;50.742;7.158;2022-09-09T00:23:38;17.70;99.90
3644;DHT22;1838;50.742;7.158;2022-09-09T00:26:26;17.50;99.90
3644;DHT22;1838;50.742;7.158;2022-09-09T00:31:48;17.60;99.90
3644;DHT22;1838;50.742;7.158;2022-09-09T00:34:23;17.60;99.90
3644;DHT22;1838;50.742;7.158;2022-09-09T00:36:52;17.50;99.90
3644;DHT22;1838;50.742;7.158;2022-09-09T00:39:41;17.50;99.90
3644;DHT22;1838;50.742;7.158;2022-09-09T00:42:13;17.50;99.90
3644;DHT22;1838;50.742;7.158;2022-09-09T00:57:41;17.60;99.90
3644;DHT22;1838;50.742;7.158;2022-09-09T01:00:30;17.60;99.90
3644;DHT22;1838;50.742;7.158;2022-09-09T01:03:20;17.50;99.90
3644;DHT22;1838;50.742;7.158;2022-09-09T01:11:05;17.30;99.90
3644;DHT22;1838;50.742;7.158;2022-09-09T01:13:34;17.30;99.90
3644;DHT22;1838;50.742;7.158;2022-09-09T01:16:06;17.30;99.90
3644;DHT22;1838;50.742;7.158;2022-09-09T01:18:36;17.20;99.90
3644;DHT22;1838;50.742;7.158;2022-09-09T01:26:52;17.30;99.90
3644;DHT22;1838;50.742;7.158;2022-09-09T01:29:21;17.30;99.90
3644;DHT22;1838;50.742;7.158;2022-09-09T01:31:57;17.30;99.90
3644;DHT22;1838;50.742;7.158;2022-09-09T01:34:26;17.40;99.90
3644;DHT22;1838;50.742;7.158;2022-09-09T01:37:03;17.40;99.90
3644;DHT22;1838;50.742;7.158;2022-09-09T01:39:30;17.50;99.90
3644;DHT22;1838;50.742;7.158;2022-09-09T01:41:57;17.50;99.90
3644;DHT22;1838;50.742;7.158;2022-09-09T01:44:23;17.50;99.90
3644;DHT22;1838;50.742;7.158;2022-09-09T01:46:49;17.50;99.90
3644;DHT22;1838;50.742;7.158;2022-09-09T01:49:17;17.50;99.90
3644;DHT22;1838;50.742;7.158;2022-09-09T01:51:43;17.50;99.90
3644;DHT22;1838;50.742;7.158;2022-09-09T01:54:11;17.50;99.90
3644;DHT22;1838;50.742;7.158;2022-09-09T02:04:35;17.50;99.90
3644;DHT22;1838;50.742;7.158;2022-09-09T02:07:02;17.50;99.90
3644;DHT22;1838;50.742;7.158;2022-09-09T02:09:29;17.50;99.90
3644;DHT22;1838;50.742;7.158;2022-09-09T02:12:06;17.50;99.90
3644;DHT22;1838;50.742;7.158;2022-09-09T02:14:37;17.50;99.90
3644;DHT22;1838;50.742;7.158;2022-09-09T02:17:11;17.60;99.90
3644;DHT22;1838;50.742;7.158;2022-09-09T02:19:53;17.60;99.90
3644;DHT22;1838;50.742;7.158;2022-09-09T02:22:23;17.60;99.90
3644;DHT22;1838;50.742;7.158;2022-09-09T02:24:50;17.60;99.90
3644;DHT22;1838;50.742;7.158;2022-09-09T02:27:20;17.60;99.90
3644;DHT22;1838;50.742;7.158;2022-09-09T02:29:47;17.60;99.90
3644;DHT22;1838;50.742;7.158;2022-09-09T02:32:18;17.60;99.90
3644;DHT22;1838;50.742;7.158;2022-09-09T02:35:09;17.60;99.90
3644;DHT22;1838;50.742;7.158;2022-09-09T02:37:38;17.60;99.90
3644;DHT22;1838;50.742;7.158;2022-09-09T02:40:09;17.60;99.90
3644;DHT22;1838;50.742;7.158;2022-09-09T02:42:43;17.60;99.90
3644;DHT22;1838;50.742;7.158;2022-09-09T02:45:11;17.60;99.90
3644;DHT22;1838;50.742;7.158;2022-09-09T02:47:43;17.70;99.90
3644;DHT22;1838;50.742;7.158;2022-09-09T02:50:22;17.70;99.90
3644;DHT22;1838;50.742;7.158;2022-09-09T02:53:16;17.70;99.90
3644;DHT22;1838;50.742;7.158;2022-09-09T02:58:20;17.70;99.90
3644;DHT22;1838;50.742;7.158;2022-09-09T03:00:49;17.70;99.90
3644;DHT22;1838;50.742;7.158;2022-09-09T03:03:16;17.60;99.90
3644;DHT22;1838;50.742;7.158;2022-09-09T03:05:43;17.60;99.90
3644;DHT22;1838;50.742;7.158;2022-09-09T03:08:08;17.70;99.90
3644;DHT22;1838;50.742;7.158;2022-09-09T03:10:34;17.60;99.90
3644;DHT22;1838;50.742;7.158;2022-09-09T03:13:00;17.70;99.90
3644;DHT22;1838;50.742;7.158;2022-09-09T03:15:26;17.70;99.90
3644;DHT22;1838;50.742;7.158;2022-09-09T03:17:56;17.70;99.90
3644;DHT22;1838;50.742;7.158;2022-09-09T03:20:23;17.70;99.90
3644;DHT22;1838;50.742;7.158;2022-09-09T03:22:48;17.70;99.90
3644;DHT22;1838;50.742;7.158;2022-09-09T03:25:15;17.70;99.90
3644;DHT22;1838;50.742;7.158;2022-09-09T03:27:40;17.80;99.90
3644;DHT22;1838;50.742;7.158;2022-09-09T03:30:06;17.80;99.90
3644;DHT22;1838;50.742;7.158;2022-09-09T03:32:32;17.90;99.90
3644;DHT22;1838;50.742;7.158;2022-09-09T03:34:58;17.80;99.90
3644;DHT22;1838;50.742;7.158;2022-09-09T03:37:23;17.90;99.90
3644;DHT22;1838;50.742;7.158;2022-09-09T03:39:49;17.80;99.90
3644;DHT22;1838;50.742;7.158;2022-09-09T03:42:15;17.90;99.90
3644;DHT22;1838;50.742;7.158;2022-09-09T03:44:44;17.90;99.90
3644;DHT22;1838;50.742;7.158;2022-09-09T03:47:13;17.90;99.90
3644;DHT22;1838;50.742;7.158;2022-09-09T03:49:39;17.90;99.90
3644;DHT22;1838;50.742;7.158;2022-09-09T03:52:04;17.80;99.90
3644;DHT22;1838;50.742;7.158;2022-09-09T03:54:30;17.80;99.90
3644;DHT22;1838;50.742;7.158;2022-09-09T03:56:55;17.80;99.90
3644;DHT22;1838;50.742;7.158;2022-09-09T03:59:21;17.70;99.90
3644;DHT22;1838;50.742;7.158;2022-09-09T04:01:46;17.80;99.90
3644;DHT22;1838;50.742;7.158;2022-09-09T04:04:12;17.80;99.90
3644;DHT22;1838;50.742;7.158;2022-09-09T04:06:38;17.80;99.90
3644;DHT22;1838;50.742;7.158;2022-09-09T04:09:03;17.80;99.90
3644;DHT22;1838;50.742;7.158;2022-09-09T04:11:29;17.70;99.90
3644;DHT22;1838;50.742;7.158;2022-09-09T04:13:55;17.70;99.90
3644;DHT22;1838;50.742;7.158;2022-09-09T04:16:20;17.80;99.90
3644;DHT22;1838;50.742;7.158;2022-09-09T04:18:46;17.80;99.90
3644;DHT22;1838;50.742;7.158;2022-09-09T04:21:12;17.80;99.90
3644;DHT22;1838;50.742;7.158;2022-09-09T04:23:38;17.80;99.90
3644;DHT22;1838;50.742;7.158;2022-09-09T04:26:04;17.80;99.90
3644;DHT22;1838;50.742;7.158;2022-09-09T04:28:32;17.70;99.90
3644;DHT22;1838;50.742;7.158;2022-09-09T04:31:04;17.70;99.90
3644;DHT22;1838;50.742;7.158;2022-09-09T04:33:30;17.60;99.90
3644;DHT22;1838;50.742;7.158;2022-09-09T04:35:57;17.70;99.90
3644;DHT22;1838;50.742;7.158;2022-09-09T04:38:22;17.70;99.90
3644;DHT22;1838;50.742;7.158;2022-09-09T04:40:49;17.60;99.90
3644;DHT22;1838;50.742;7.158;2022-09-09T04:43:16;17.60;99.90
3644;DHT22;1838;50.742;7.158;2022-09-09T04:45:42;17.60;99.90
3644;DHT22;1838;50.742;7.158;2022-09-09T04:48:08;17.50;99.90
3644;DHT22;1838;50.742;7.158;2022-09-09T04:50:35;17.50;99.90
3644;DHT22;1838;50.742;7.158;2022-09-09T04:53:01;17.50;99.90
3644;DHT22;1838;50.742;7.158;2022-09-09T04:55:28;17.50;99.90
3644;DHT22;1838;50.742;7.158;2022-09-09T04:57:53;17.50;99.90
3644;DHT22;1838;50.742;7.158;2022-09-09T05:00:20;17.50;99.90
3644;DHT22;1838;50.742;7.158;2022-09-09T05:02:45;17.50;99.90
3644;DHT22;1838;50.742;7.158;2022-09-09T05:05:11;17.50;99.90
3644;DHT22;1838;50.742;7.158;2022-09-09T05:07:37;17.50;99.90
3644;DHT22;1838;50.742;7.158;2022-09-09T05:10:03;17.50;99.90
3644;DHT22;1838;50.742;7.158;2022-09-09T05:12:30;17.50;99.90
3644;DHT22;1838;50.742;7.158;2022-09-09T05:14:56;17.50;99.90
3644;DHT22;1838;50.742;7.158;2022-09-09T05:17:22;17.50;99.90
3644;DHT22;1838;50.742;7.158;2022-09-09T05:19:47;17.40;99.90
3644;DHT22;1838;50.742;7.158;2022-09-09T05:22:17;17.50;99.90
3644;DHT22;1838;50.742;7.158;2022-09-09T05:24:43;17.50;99.90
3644;DHT22;1838;50.742;7.158;2022-09-09T05:27:09;17.50;99.90
3644;DHT22;1838;50.742;7.158;2022-09-09T05:29:37;17.50;99.90
3644;DHT22;1838;50.742;7.158;2022-09-09T05:32:04;17.60;99.90
3644;DHT22;1838;50.742;7.158;2022-09-09T05:34:29;17.60;99.90
3644;DHT22;1838;50.742;7.158;2022-09-09T05:36:55;17.60;99.90
3644;DHT22;1838;50.742;7.158;2022-09-09T05:39:20;17.70;99.90
3644;DHT22;1838;50.742;7.158;2022-09-09T05:41:46;17.80;99.90
3644;DHT22;1838;50.742;7.158;2022-09-09T05:44:12;17.80;99.90
3644;DHT22;1838;50.742;7.158;2022-09-09T05:46:37;17.90;99.90
3644;DHT22;1838;50.742;7.158;2022-09-09T05:49:03;17.90;99.90
3644;DHT22;1838;50.742;7.158;2022-09-09T05:51:30;17.90;99.90
3644;DHT22;1838;50.742;7.158;2022-09-09T05:53:56;17.90;99.90
3644;DHT22;1838;50.742;7.158;2022-09-09T05:56:26;17.80;99.90
3644;DHT22;1838;50.742;7.158;2022-09-09T05:58:53;17.90;99.90
3644;DHT22;1838;50.742;7.158;2022-09-09T06:01:30;17.90;99.90
3644;DHT22;1838;50.742;7.158;2022-09-09T06:03:56;18.00;99.90
3644;DHT22;1838;50.742;7.158;2022-09-09T06:06:32;18.00;99.90
3644;DHT22;1838;50.742;7.158;2022-09-09T06:09:02;18.00;99.90
3644;DHT22;1838;50.742;7.158;2022-09-09T06:11:30;18.10;99.90
3644;DHT22;1838;50.742;7.158;2022-09-09T06:14:00;18.00;99.90
3644;DHT22;1838;50.742;7.158;2022-09-09T06:16:27;18.10;99.90
3644;DHT22;1838;50.742;7.158;2022-09-09T06:18:54;18.20;99.90
3644;DHT22;1838;50.742;7.158;2022-09-09T06:21:29;18.20;99.90
3644;DHT22;1838;50.742;7.158;2022-09-09T06:23:56;18.30;99.90
3644;DHT22;1838;50.742;7.158;2022-09-09T06:26:23;18.20;99.90
3644;DHT22;1838;50.742;7.158;2022-09-09T06:28:51;18.20;99.90
3644;DHT22;1838;50.742;7.158;2022-09-09T06:31:19;18.20;99.90
3644;DHT22;1838;50.742;7.158;2022-09-09T06:33:50;18.20;99.90
3644;DHT22;1838;50.742;7.158;2022-09-09T06:36:27;18.20;99.90
3644;DHT22;1838;50.742;7.158;2022-09-09T06:38:53;18.20;99.90
3644;DHT22;1838;50.742;7.158;2022-09-09T06:41:20;18.20;99.90
3644;DHT22;1838;50.742;7.158;2022-09-09T06:43:47;18.30;99.90
3644;DHT22;1838;50.742;7.158;2022-09-09T06:46:15;18.40;99.90
3644;DHT22;1838;50.742;7.158;2022-09-09T06:48:41;18.50;99.90
3644;DHT22;1838;50.742;7.158;2022-09-09T06:51:10;18.70;99.90
3644;DHT22;1838;50.742;7.158;2022-09-09T06:53:37;18.90;99.90
3644;DHT22;1838;50.742;7.158;2022-09-09T06:56:31;19.10;99.90
3644;DHT22;1838;50.742;7.158;2022-09-09T06:58:58;19.40;99.90
3644;DHT22;1838;50.742;7.158;2022-09-09T07:01:28;19.70;99.90
3644;DHT22;1838;50.742;7.158;2022-09-09T07:03:55;20.00;99.90
3644;DHT22;1838;50.742;7.158;2022-09-09T07:06:25;20.50;99.90
3644;DHT22;1838;50.742;7.158;2022-09-09T07:08:53;20.70;99.90
3644;DHT22;1838;50.742;7.158;2022-09-09T07:11:20;20.90;99.90
3644;DHT22;1838;50.742;7.158;2022-09-09T07:13:46;21.10;99.90
3644;DHT22;1838;50.742;7.158;2022-09-09T07:16:14;21.20;99.90
3644;DHT22;1838;50.742;7.158;2022-09-09T07:18:40;21.30;99.90
3644;DHT22;1838;50.742;7.158;2022-09-09T07:21:06;21.60;99.90
3644;DHT22;1838;50.742;7.158;2022-09-09T07:23:34;21.90;99.90
3644;DHT22;1838;50.742;7.158;2022-09-09T07:26:01;22.20;99.90
3644;DHT22;1838;50.742;7.158;2022-09-09T07:28:27;22.30;99.90
3644;DHT22;1838;50.742;7.158;2022-09-09T07:30:59;22.70;99.90
3644;DHT22;1838;50.742;7.158;2022-09-09T07:33:25;22.90;99.90
3644;DHT22;1838;50.742;7.158;2022-09-09T07:35:51;23.10;99.90
3644;DHT22;1838;50.742;7.158;2022-09-09T07:38:18;23.10;99.90
3644;DHT22;1838;50.742;7.158;2022-09-09T07:40:44;23.10;99.90
3644;DHT22;1838;50.742;7.158;2022-09-09T07:43:10;23.30;99.90
3644;DHT22;1838;50.742;7.158;2022-09-09T07:45:38;23.60;99.90
3644;DHT22;1838;50.742;7.158;2022-09-09T07:48:05;23.60;99.90
3644;DHT22;1838;50.742;7.158;2022-09-09T07:50:31;23.40;99.90
3644;DHT22;1838;50.742;7.158;2022-09-09T07:52:56;23.40;99.90
3644;DHT22;1838;50.742;7.158;2022-09-09T07:55:23;23.40;99.90
3644;DHT22;1838;50.742;7.158;2022-09-09T07:57:53;23.30;99.90
3644;DHT22;1838;50.742;7.158;2022-09-09T08:00:19;22.90;99.90
3644;DHT22;1838;50.742;7.158;2022-09-09T08:02:45;22.80;99.90
3644;DHT22;1838;50.742;7.158;2022-09-09T08:05:11;22.50;99.90
3644;DHT22;1838;50.742;7.158;2022-09-09T08:07:38;22.10;99.90
3644;DHT22;1838;50.742;7.158;2022-09-09T08:10:04;21.90;99.90
3644;DHT22;1838;50.742;7.158;2022-09-09T08:12:31;21.80;99.90
3644;DHT22;1838;50.742;7.158;2022-09-09T08:14:57;21.90;99.90
3644;DHT22;1838;50.742;7.158;2022-09-09T08:17:23;21.80;99.90
3644;DHT22;1838;50.742;7.158;2022-09-09T08:19:48;21.80;99.90
3644;DHT22;1838;50.742;7.158;2022-09-09T08:22:14;21.60;99.90
3644;DHT22;1838;50.742;7.158;2022-09-09T08:24:40;21.70;99.90
3644;DHT22;1838;50.742;7.158;2022-09-09T08:27:06;21.80;99.90
3644;DHT22;1838;50.742;7.158;2022-09-09T08:29:31;21.90;99.90
3644;DHT22;1838;50.742;7.158;2022-09-09T08:31:58;22.10;99.90
3644;DHT22;1838;50.742;7.158;2022-09-09T08:34:25;22.30;99.90
3644;DHT22;1838;50.742;7.158;2022-09-09T08:36:52;22.40;99.90
3644;DHT22;1838;50.742;7.158;2022-09-09T08:39:20;22.30;99.90
3644;DHT22;1838;50.742;7.158;2022-09-09T08:42:13;22.10;99.90
3644;DHT22;1838;50.742;7.158;2022-09-09T08:52:37;21.80;99.90
3644;DHT22;1838;50.742;7.158;2022-09-09T08:57:57;21.90;99.90
3644;DHT22;1838;50.742;7.158;2022-09-09T09:00:34;22.10;99.90
3644;DHT22;1838;50.742;7.158;2022-09-09T09:09:05;22.10;99.90
3644;DHT22;1838;50.742;7.158;2022-09-09T09:11:39;22.20;99.90
3644;DHT22;1838;50.742;7.158;2022-09-09T09:14:15;22.30;99.90
3644;DHT22;1838;50.742;7.158;2022-09-09T09:16:55;22.50;99.90
3644;DHT22;1838;50.742;7.158;2022-09-09T09:19:22;22.80;99.90
3644;DHT22;1838;50.742;7.158;2022-09-09T09:22:02;23.20;99.90
3644;DHT22;1838;50.742;7.158;2022-09-09T09:24:40;23.30;99.90
3644;DHT22;1838;50.742;7.158;2022-09-09T09:27:18;23.30;99.90
3644;DHT22;1838;50.742;7.158;2022-09-09T09:29:48;23.40;99.90
3644;DHT22;1838;50.742;7.158;2022-09-09T09:32:18;23.30;99.90
3644;DHT22;1838;50.742;7.158;2022-09-09T09:34:53;23.40;99.90
3644;DHT22;1838;50.742;7.158;2022-09-09T09:37:28;23.60;99.90
3644;DHT22;1838;50.742;7.158;2022-09-09T09:39:54;23.40;99.90
3644;DHT22;1838;50.742;7.158;2022-09-09T09:42:20;23.60;99.90
3644;DHT22;1838;50.742;7.158;2022-09-09T09:44:46;23.50;99.90
3644;DHT22;1838;50.742;7.158;2022-09-09T09:47:16;23.50;99.90
3644;DHT22;1838;50.742;7.158;2022-09-09T09:49:58;23.60;99.90
3644;DHT22;1838;50.742;7.158;2022-09-09T09:52:33;23.70;99.90
3644;DHT22;1838;50.742;7.158;2022-09-09T09:55:03;23.70;99.90
3644;DHT22;1838;50.742;7.158;2022-09-09T09:57:30;23.70;99.90
3644;DHT22;1838;50.742;7.158;2022-09-09T10:02:43;23.40;99.90
3644;DHT22;1838;50.742;7.158;2022-09-09T10:05:22;23.40;99.90
3644;DHT22;1838;50.742;7.158;2022-09-09T10:08:08;23.40;99.90
3644;DHT22;1838;50.742;7.158;2022-09-09T10:14:00;23.40;99.90
3644;DHT22;1838;50.742;7.158;2022-09-09T10:16:45;23.50;99.90
3644;DHT22;1838;50.742;7.158;2022-09-09T10:19:33;23.50;99.90
3644;DHT22;1838;50.742;7.158;2022-09-09T10:30:18;23.50;99.90
3644;DHT22;1838;50.742;7.158;2022-09-09T10:33:04;23.60;99.90
3644;DHT22;1838;50.742;7.158;2022-09-09T10:35:33;23.80;99.90
3644;DHT22;1838;50.742;7.158;2022-09-09T10:40:32;23.50;99.90
3644;DHT22;1838;50.742;7.158;2022-09-09T10:45:57;23.30;99.90
3644;DHT22;1838;50.742;7.158;2022-09-09T10:49:08;23.20;99.90
3644;DHT22;1838;50.742;7.158;2022-09-09T10:56:52;23.10;99.90
3644;DHT22;1838;50.742;7.158;2022-09-09T10:59:31;23.10;99.90
3644;DHT22;1838;50.742;7.158;2022-09-09T11:02:03;23.10;99.90
3644;DHT22;1838;50.742;7.158;2022-09-09T11:04:33;23.00;99.90
3644;DHT22;1838;50.742;7.158;2022-09-09T11:07:02;23.00;99.90
3644;DHT22;1838;50.742;7.158;2022-09-09T11:09:35;23.00;99.90
3644;DHT22;1838;50.742;7.158;2022-09-09T11:12:03;22.80;99.90
3644;DHT22;1838;50.742;7.158;2022-09-09T11:14:37;23.00;99.90
3644;DHT22;1838;50.742;7.158;2022-09-09T11:17:10;23.20;99.90
3644;DHT22;1838;50.742;7.158;2022-09-09T11:19:40;23.30;99.90
3644;DHT22;1838;50.742;7.158;2022-09-09T11:22:32;23.30;99.90
3644;DHT22;1838;50.742;7.158;2022-09-09T11:25:10;23.20;99.90
3644;DHT22;1838;50.742;7.158;2022-09-09T11:27:51;23.30;99.90
3644;DHT22;1838;50.742;7.158;2022-09-09T11:30:22;23.50;99.90
3644;DHT22;1838;50.742;7.158;2022-09-09T11:33:00;23.60;99.90
3644;DHT22;1838;50.742;7.158;2022-09-09T11:36:01;23.80;99.90
3644;DHT22;1838;50.742;7.158;2022-09-09T11:38:52;24.10;99.90
3644;DHT22;1838;50.742;7.158;2022-09-09T11:41:21;24.40;99.90
3644;DHT22;1838;50.742;7.158;2022-09-09T11:43:49;24.60;99.90
3644;DHT22;1838;50.742;7.158;2022-09-09T11:46:18;24.80;98.90
3644;DHT22;1838;50.742;7.158;2022-09-09T11:48:56;25.00;97.30
3644;DHT22;1838;50.742;7.158;2022-09-09T11:51:26;25.20;97.70
3644;DHT22;1838;50.742;7.158;2022-09-09T11:53:57;25.40;97.10
3644;DHT22;1838;50.742;7.158;2022-09-09T11:56:46;25.60;95.70
3644;DHT22;1838;50.742;7.158;2022-09-09T11:59:26;25.30;93.00
3644;DHT22;1838;50.742;7.158;2022-09-09T12:02:03;25.30;94.70
3644;DHT22;1838;50.742;7.158;2022-09-09T12:04:39;25.40;94.80
3644;DHT22;1838;50.742;7.158;2022-09-09T12:07:29;25.10;94.00
3644;DHT22;1838;50.742;7.158;2022-09-09T12:12:34;25.20;93.10
3644;DHT22;1838;50.742;7.158;2022-09-09T12:31:05;25.70;92.50
3644;DHT22;1838;50.742;7.158;2022-09-09T12:33:38;25.60;91.40
3644;DHT22;1838;50.742;7.158;2022-09-09T12:36:21;25.40;92.10
3644;DHT22;1838;50.742;7.158;2022-09-09T12:38:48;25.40;92.10
3644;DHT22;1838;50.742;7.158;2022-09-09T12:41:20;25.30;90.90
3644;DHT22;1838;50.742;7.158;2022-09-09T12:43:46;25.40;92.00
3644;DHT22;1838;50.742;7.158;2022-09-09T12:46:30;25.30;91.80
3644;DHT22;1838;50.742;7.158;2022-09-09T12:48:58;24.90;92.20
3644;DHT22;1838;50.742;7.158;2022-09-09T12:51:28;24.70;93.40
3644;DHT22;1838;50.742;7.158;2022-09-09T12:53:54;24.60;94.20
3644;DHT22;1838;50.742;7.158;2022-09-09T12:56:25;24.60;94.30
3644;DHT22;1838;50.742;7.158;2022-09-09T12:58:56;24.50;95.10
3644;DHT22;1838;50.742;7.158;2022-09-09T13:01:31;24.30;95.60
3644;DHT22;1838;50.742;7.158;2022-09-09T13:03:58;24.10;94.10
3644;DHT22;1838;50.742;7.158;2022-09-09T13:06:26;24.00;93.80
3644;DHT22;1838;50.742;7.158;2022-09-09T13:08:53;23.90;95.00
3644;DHT22;1838;50.742;7.158;2022-09-09T13:11:23;23.90;95.50
3644;DHT22;1838;50.742;7.158;2022-09-09T13:13:53;23.80;95.80
3644;DHT22;1838;50.742;7.158;2022-09-09T13:16:31;23.80;95.40
3644;DHT22;1838;50.742;7.158;2022-09-09T13:19:01;23.80;95.50
3644;DHT22;1838;50.742;7.158;2022-09-09T13:21:34;23.90;96.70
3644;DHT22;1838;50.742;7.158;2022-09-09T13:24:00;24.10;96.50
3644;DHT22;1838;50.742;7.158;2022-09-09T13:26:29;24.20;96.30
3644;DHT22;1838;50.742;7.158;2022-09-09T13:29:07;24.30;95.70
3644;DHT22;1838;50.742;7.158;2022-09-09T13:31:35;24.10;95.80
3644;DHT22;1838;50.742;7.158;2022-09-09T13:34:25;23.90;99.40
3644;DHT22;1838;50.742;7.158;2022-09-09T13:37:03;23.70;99.90
3644;DHT22;1838;50.742;7.158;2022-09-09T13:39:33;23.30;99.90
3644;DHT22;1838;50.742;7.158;2022-09-09T13:41:59;23.10;99.90
3644;DHT22;1838;50.742;7.158;2022-09-09T13:44:30;23.00;99.90
3644;DHT22;1838;50.742;7.158;2022-09-09T13:47:21;22.90;99.90
3644;DHT22;1838;50.742;7.158;2022-09-09T13:49:46;23.10;99.90
3644;DHT22;1838;50.742;7.158;2022-09-09T13:52:16;23.30;99.90
3644;DHT22;1838;50.742;7.158;2022-09-09T13:54:49;23.50;99.90
3644;DHT22;1838;50.742;7.158;2022-09-09T13:57:19;23.80;99.90
3644;DHT22;1838;50.742;7.158;2022-09-09T13:59:46;23.80;99.90
3644;DHT22;1838;50.742;7.158;2022-09-09T14:02:12;23.90;99.90
3644;DHT22;1838;50.742;7.158;2022-09-09T14:04:38;24.10;99.90
3644;DHT22;1838;50.742;7.158;2022-09-09T14:07:08;24.30;99.90
3644;DHT22;1838;50.742;7.158;2022-09-09T14:09:34;24.40;99.90
3644;DHT22;1838;50.742;7.158;2022-09-09T14:12:00;24.60;99.90
3644;DHT22;1838;50.742;7.158;2022-09-09T14:14:25;24.80;99.90
3644;DHT22;1838;50.742;7.158;2022-09-09T14:16:51;24.90;99.70
3644;DHT22;1838;50.742;7.158;2022-09-09T14:19:16;25.00;98.80
3644;DHT22;1838;50.742;7.158;2022-09-09T14:21:43;24.70;99.10
3644;DHT22;1838;50.742;7.158;2022-09-09T14:24:08;24.50;99.90
3644;DHT22;1838;50.742;7.158;2022-09-09T14:26:34;24.50;99.90
3644;DHT22;1838;50.742;7.158;2022-09-09T14:28:59;24.40;99.90
3644;DHT22;1838;50.742;7.158;2022-09-09T14:31:26;24.30;99.90
3644;DHT22;1838;50.742;7.158;2022-09-09T14:33:52;24.40;99.90
3644;DHT22;1838;50.742;7.158;2022-09-09T14:36:18;24.60;99.90
3644;DHT22;1838;50.742;7.158;2022-09-09T14:38:43;24.60;99.90
3644;DHT22;1838;50.742;7.158;2022-09-09T14:41:11;24.70;99.90
3644;DHT22;1838;50.742;7.158;2022-09-09T14:43:40;24.70;99.90
3644;DHT22;1838;50.742;7.158;2022-09-09T14:46:07;25.00;99.90
3644;DHT22;1838;50.742;7.158;2022-09-09T14:48:32;24.90;99.70
3644;DHT22;1838;50.742;7.158;2022-09-09T14:51:08;24.70;99.40
3644;DHT22;1838;50.742;7.158;2022-09-09T14:53:34;24.70;99.90
3644;DHT22;1838;50.742;7.158;2022-09-09T14:56:17;24.70;99.90
3644;DHT22;1838;50.742;7.158;2022-09-09T14:58:43;24.50;99.90
3644;DHT22;1838;50.742;7.158;2022-09-09T15:01:12;24.60;99.90
3644;DHT22;1838;50.742;7.158;2022-09-09T15:03:39;24.70;99.90
3644;DHT22;1838;50.742;7.158;2022-09-09T15:06:11;24.80;99.90
3644;DHT22;1838;50.742;7.158;2022-09-09T15:08:38;25.00;99.90
3644;DHT22;1838;50.742;7.158;2022-09-09T15:11:05;25.10;99.90
3644;DHT22;1838;50.742;7.158;2022-09-09T15:13:36;24.80;99.90
3644;DHT22;1838;50.742;7.158;2022-09-09T15:18:32;24.50;99.90
3644;DHT22;1838;50.742;7.158;2022-09-09T15:20:58;24.30;99.90
3644;DHT22;1838;50.742;7.158;2022-09-09T15:23:25;23.90;99.90
3644;DHT22;1838;50.742;7.158;2022-09-09T15:25:54;23.60;99.90
3644;DHT22;1838;50.742;7.158;2022-09-09T15:28:21;23.60;99.90
3644;DHT22;1838;50.742;7.158;2022-09-09T15:30:48;23.40;99.90
3644;DHT22;1838;50.742;7.158;2022-09-09T15:33:14;23.10;99.90
3644;DHT22;1838;50.742;7.158;2022-09-09T15:35:40;23.10;99.90
3644;DHT22;1838;50.742;7.158;2022-09-09T15:38:05;23.00;99.90
3644;DHT22;1838;50.742;7.158;2022-09-09T15:40:31;23.00;99.90
3644;DHT22;1838;50.742;7.158;2022-09-09T15:42:59;22.80;99.90
3644;DHT22;1838;50.742;7.158;2022-09-09T15:45:25;22.70;99.90
3644;DHT22;1838;50.742;7.158;2022-09-09T15:47:52;22.80;99.90
3644;DHT22;1838;50.742;7.158;2022-09-09T15:50:17;22.70;99.90
3644;DHT22;1838;50.742;7.158;2022-09-09T15:52:43;22.70;99.90
3644;DHT22;1838;50.742;7.158;2022-09-09T15:55:09;22.70;99.90
3644;DHT22;1838;50.742;7.158;2022-09-09T15:57:35;22.70;99.90
3644;DHT22;1838;50.742;7.158;2022-09-09T16:00:03;22.50;99.90
3644;DHT22;1838;50.742;7.158;2022-09-09T16:02:29;22.40;99.90
3644;DHT22;1838;50.742;7.158;2022-09-09T16:04:56;22.40;99.90
3644;DHT22;1838;50.742;7.158;2022-09-09T16:07:22;22.40;99.90
3644;DHT22;1838;50.742;7.158;2022-09-09T16:09:48;22.30;99.90
3644;DHT22;1838;50.742;7.158;2022-09-09T16:12:15;22.30;99.90
3644;DHT22;1838;50.742;7.158;2022-09-09T16:14:41;22.40;99.90
3644;DHT22;1838;50.742;7.158;2022-09-09T16:17:07;22.40;99.90
3644;DHT22;1838;50.742;7.158;2022-09-09T16:19:33;22.40;99.90
3644;DHT22;1838;50.742;7.158;2022-09-09T16:21:59;22.20;99.90
3644;DHT22;1838;50.742;7.158;2022-09-09T16:24:25;22.20;99.90
3644;DHT22;1838;50.742;7.158;2022-09-09T16:26:53;22.30;99.90
3644;DHT22;1838;50.742;7.158;2022-09-09T16:29:20;22.30;99.90
3644;DHT22;1838;50.742;7.158;2022-09-09T16:31:47;22.10;99.90
3644;DHT22;1838;50.742;7.158;2022-09-09T16:34:14;22.10;99.90
3644;DHT22;1838;50.742;7.158;2022-09-09T16:36:41;22.00;99.90
3644;DHT22;1838;50.742;7.158;2022-09-09T16:39:15;21.90;99.90
3644;DHT22;1838;50.742;7.158;2022-09-09T16:41:42;21.90;99.90
3644;DHT22;1838;50.742;7.158;2022-09-09T16:44:11;21.60;99.90
3644;DHT22;1838;50.742;7.158;2022-09-09T16:46:39;21.60;99.90
3644;DHT22;1838;50.742;7.158;2022-09-09T16:49:08;21.40;99.90
3644;DHT22;1838;50.742;7.158;2022-09-09T16:51:40;21.30;99.90
3644;DHT22;1838;50.742;7.158;2022-09-09T16:54:07;21.30;99.90
3644;DHT22;1838;50.742;7.158;2022-09-09T16:56:35;21.40;99.90
3644;DHT22;1838;50.742;7.158;2022-09-09T16:59:05;21.30;99.90
3644;DHT22;1838;50.742;7.158;2022-09-09T17:01:33;21.10;99.90
3644;DHT22;1838;50.742;7.158;2022-09-09T17:04:04;21.10;99.90
3644;DHT22;1838;50.742;7.158;2022-09-09T17:06:31;20.80;99.90
3644;DHT22;1838;50.742;7.158;2022-09-09T17:08:59;20.60;99.90
3644;DHT22;1838;50.742;7.158;2022-09-09T17:11:26;20.30;99.90
3644;DHT22;1838;50.742;7.158;2022-09-09T17:13:53;20.10;99.90
3644;DHT22;1838;50.742;7.158;2022-09-09T17:16:20;20.00;99.90
3644;DHT22;1838;50.742;7.158;2022-09-09T17:18:50;19.80;99.90
3644;DHT22;1838;50.742;7.158;2022-09-09T17:21:19;19.70;99.90
3644;DHT22;1838;50.742;7.158;2022-09-09T17:23:45;19.70;99.90
3644;DHT22;1838;50.742;7.158;2022-09-09T17:26:14;19.60;99.90
3644;DHT22;1838;50.742;7.158;2022-09-09T17:28:40;19.60;99.90
3644;DHT22;1838;50.742;7.158;2022-09-09T17:31:08;19.70;99.90
3644;DHT22;1838;50.742;7.158;2022-09-09T17:33:34;19.60;99.90
3644;DHT22;1838;50.742;7.158;2022-09-09T17:36:06;19.60;99.90
3644;DHT22;1838;50.742;7.158;2022-09-09T17:38:33;19.60;99.90
3644;DHT22;1838;50.742;7.158;2022-09-09T17:41:04;19.50;99.90
3644;DHT22;1838;50.742;7.158;2022-09-09T17:43:30;19.50;99.90
3644;DHT22;1838;50.742;7.158;2022-09-09T17:46:08;19.50;99.90
3644;DHT22;1838;50.742;7.158;2022-09-09T17:48:34;19.30;99.90
3644;DHT22;1838;50.742;7.158;2022-09-09T17:51:05;19.10;99.90
3644;DHT22;1838;50.742;7.158;2022-09-09T17:53:36;19.10;99.90
3644;DHT22;1838;50.742;7.158;2022-09-09T17:56:04;19.00;99.90
3644;DHT22;1838;50.742;7.158;2022-09-09T17:58:30;19.00;99.90
3644;DHT22;1838;50.742;7.158;2022-09-09T18:00:55;18.80;99.90